createdAt,value
2023-01-08T00:01:11.844Z,39.10
2023-01-08T00:03:38.852Z,38.22
2023-01-08T00:06:11.196Z,37.80
2023-01-08T00:08:37.952Z,39.27
2023-01-08T00:11:04.753Z,41.30
2023-01-08T00:13:31.469Z,40.95
2023-01-08T00:16:02.047Z,38.47
2023-01-08T00:18:29.052Z,35.88
2023-01-08T00:20:55.795Z,38.38
2023-01-08T00:23:23.115Z,36.72
2023-01-08T00:25:49.967Z,33.80
2023-01-08T00:28:17.050Z,32.03
2023-01-08T00:30:43.962Z,32.28
2023-01-08T00:33:10.835Z,33.53
2023-01-08T00:35:40.688Z,34.00
2023-01-08T00:38:07.638Z,33.85
2023-01-08T00:40:34.942Z,36.17
2023-01-08T00:43:01.903Z,34.20
2023-01-08T00:45:28.686Z,37.45
2023-01-08T00:47:55.432Z,31.58
2023-01-08T00:50:22.191Z,38.17
2023-01-08T00:52:48.926Z,38.63
2023-01-08T00:55:15.807Z,37.40
2023-01-08T00:57:42.505Z,35.08
2023-01-08T01:00:11.471Z,34.80
2023-01-08T01:02:38.328Z,37.63
2023-01-08T01:05:05.804Z,37.55
2023-01-08T01:07:33.791Z,38.00
2023-01-08T01:10:00.745Z,36.03
2023-01-08T01:12:28.321Z,37.97
2023-01-08T01:14:55.085Z,36.55
2023-01-08T01:17:21.790Z,36.65
2023-01-08T01:19:48.569Z,39.42
2023-01-08T01:22:15.275Z,39.92
2023-01-08T01:24:42.019Z,39.83
2023-01-08T01:27:10.113Z,35.30
2023-01-08T01:29:36.939Z,40.85
2023-01-08T01:32:03.782Z,39.80
2023-01-08T01:34:30.579Z,38.42
2023-01-08T01:36:57.299Z,40.30
2023-01-08T01:39:24.058Z,38.28
2023-01-08T01:41:50.847Z,40.03
2023-01-08T01:44:39.436Z,35.72
2023-01-08T01:47:13.001Z,39.17
2023-01-08T01:49:40.114Z,37.97
2023-01-08T01:52:07.559Z,38.53
2023-01-08T01:54:34.276Z,37.38
2023-01-08T01:57:01.227Z,36.40
2023-01-08T01:59:28.223Z,39.03
2023-01-08T02:01:55.746Z,37.55
2023-01-08T02:04:22.675Z,39.92
2023-01-08T02:06:53.184Z,37.72
2023-01-08T02:09:42.104Z,37.33
2023-01-08T02:12:34.038Z,39.38
2023-01-08T02:15:32.999Z,36.67
2023-01-08T02:18:02.476Z,38.03
2023-01-08T02:20:56.633Z,40.67
2023-01-08T02:23:53.781Z,36.63
2023-01-08T02:26:35.985Z,36.55
2023-01-08T02:29:10.462Z,39.45
2023-01-08T02:31:39.979Z,38.97
2023-01-08T02:34:06.790Z,38.58
2023-01-08T02:36:36.536Z,37.50
2023-01-08T02:39:41.041Z,36.35
2023-01-08T02:42:35.557Z,38.00
2023-01-08T02:45:02.273Z,36.00
2023-01-08T02:47:49.883Z,39.85
2023-01-08T02:50:25.868Z,38.60
2023-01-08T02:53:19.325Z,38.40
2023-01-08T02:55:52.241Z,40.25
2023-01-08T02:58:19.183Z,39.05
2023-01-08T03:00:46.740Z,39.13
2023-01-08T03:03:17.687Z,37.42
2023-01-08T03:05:47.159Z,36.03
2023-01-08T03:08:13.927Z,37.80
2023-01-08T03:10:41.904Z,40.75
2023-01-08T03:13:12.357Z,38.30
2023-01-08T03:15:49.918Z,36.50
2023-01-08T03:18:24.386Z,35.75
2023-01-08T03:20:51.110Z,34.88
2023-01-08T03:23:18.069Z,35.83
2023-01-08T03:25:46.216Z,37.13
2023-01-08T03:28:19.696Z,36.42
2023-01-08T03:30:46.571Z,35.53
2023-01-08T03:33:13.322Z,34.45
2023-01-08T03:35:41.277Z,36.20
2023-01-08T03:38:32.881Z,35.95
2023-01-08T03:41:13.724Z,35.22
2023-01-08T03:43:40.492Z,35.20
2023-01-08T03:46:10.975Z,35.10
2023-01-08T03:48:37.719Z,35.45
2023-01-08T03:51:07.765Z,36.25
2023-01-08T03:53:34.492Z,33.38
2023-01-08T03:56:01.189Z,34.53
2023-01-08T03:58:27.995Z,37.33
2023-01-08T04:00:54.747Z,36.95
2023-01-08T04:03:21.565Z,37.85
2023-01-08T04:05:48.282Z,37.45
2023-01-08T04:08:14.958Z,40.53
2023-01-08T04:10:41.700Z,34.38
2023-01-08T04:13:08.411Z,33.72
2023-01-08T04:15:35.169Z,32.47
2023-01-08T04:18:01.922Z,35.28
2023-01-08T04:20:28.708Z,33.95
2023-01-08T04:22:55.478Z,37.80
2023-01-08T04:25:22.199Z,36.88
2023-01-08T04:27:48.951Z,32.53
2023-01-08T04:30:15.859Z,32.92
2023-01-08T04:32:42.685Z,34.80
2023-01-08T04:35:09.799Z,34.33
2023-01-08T04:37:36.578Z,34.28
2023-01-08T04:40:05.086Z,33.47
2023-01-08T04:42:31.848Z,36.55
2023-01-08T04:44:58.576Z,34.17
2023-01-08T04:47:25.338Z,35.03
2023-01-08T04:49:52.082Z,33.75
2023-01-08T04:52:18.836Z,31.55
2023-01-08T04:54:45.553Z,32.00
2023-01-08T04:57:12.306Z,31.38
2023-01-08T04:59:39.060Z,30.65
2023-01-08T05:02:05.917Z,32.80
2023-01-08T05:04:32.690Z,34.03
2023-01-08T05:06:59.437Z,31.45
2023-01-08T05:09:26.178Z,30.67
2023-01-08T05:11:52.894Z,30.92
2023-01-08T05:14:19.638Z,35.17
2023-01-08T05:16:46.358Z,33.25
2023-01-08T05:19:13.337Z,32.92
2023-01-08T05:21:40.130Z,34.97
2023-01-08T05:24:07.047Z,34.05
2023-01-08T05:26:33.769Z,33.20
2023-01-08T05:29:00.525Z,32.28
2023-01-08T05:31:27.357Z,32.50
2023-01-08T05:33:54.117Z,29.80
2023-01-08T05:36:20.828Z,32.90
2023-01-08T05:38:47.586Z,31.65
2023-01-08T05:41:14.333Z,32.58
2023-01-08T05:43:41.106Z,30.90
2023-01-08T05:46:08.000Z,30.20
2023-01-08T05:48:35.200Z,32.22
2023-01-08T05:51:02.390Z,32.00
2023-01-08T05:53:29.200Z,31.70
2023-01-08T05:56:02.839Z,34.45
2023-01-08T05:58:29.812Z,32.47
2023-01-08T06:01:02.574Z,36.22
2023-01-08T06:03:29.298Z,32.40
2023-01-08T06:06:00.692Z,35.30
2023-01-08T06:08:28.565Z,34.35
2023-01-08T06:10:58.615Z,30.95
2023-01-08T06:13:25.364Z,33.20
2023-01-08T06:15:52.147Z,32.30
2023-01-08T06:18:18.894Z,30.25
2023-01-08T06:20:45.633Z,32.30
2023-01-08T06:23:12.590Z,34.10
2023-01-08T06:25:39.392Z,31.58
2023-01-08T06:28:06.245Z,33.47
2023-01-08T06:30:32.962Z,30.52
2023-01-08T06:32:59.907Z,32.05
2023-01-08T06:35:26.861Z,28.85
2023-01-08T06:37:56.608Z,33.47
2023-01-08T06:40:23.856Z,31.35
2023-01-08T06:42:50.644Z,31.77
2023-01-08T06:45:17.415Z,30.05
2023-01-08T06:47:44.151Z,33.08
2023-01-08T06:50:11.574Z,32.78
2023-01-08T06:52:38.897Z,35.00
2023-01-08T06:55:06.316Z,34.33
2023-01-08T06:57:33.101Z,32.50
2023-01-08T06:59:59.864Z,34.72
2023-01-08T07:02:26.740Z,32.55
2023-01-08T07:04:53.842Z,32.72
2023-01-08T07:07:20.649Z,34.83
2023-01-08T07:09:47.528Z,34.72
2023-01-08T07:12:14.270Z,33.50
2023-01-08T07:14:41.192Z,33.45
2023-01-08T07:17:08.004Z,32.28
2023-01-08T07:19:34.960Z,33.50
2023-01-08T07:22:01.709Z,35.95
2023-01-08T07:24:28.579Z,33.70
2023-01-08T07:26:55.281Z,33.05
2023-01-08T07:29:22.206Z,31.02
2023-01-08T07:31:48.935Z,32.53
2023-01-08T07:34:15.770Z,33.20
2023-01-08T07:36:42.513Z,34.80
2023-01-08T07:39:10.529Z,39.78
2023-01-08T07:41:37.332Z,30.58
2023-01-08T07:44:04.150Z,31.17
2023-01-08T07:46:30.980Z,30.88
2023-01-08T07:48:58.000Z,32.70
2023-01-08T07:51:24.797Z,31.20
2023-01-08T07:53:51.637Z,29.23
2023-01-08T07:56:18.343Z,30.75
2023-01-08T07:58:45.053Z,31.33
2023-01-08T08:01:12.401Z,30.80
2023-01-08T08:03:39.472Z,30.48
2023-01-08T08:06:06.660Z,29.80
2023-01-08T08:08:33.583Z,29.60
2023-01-08T08:11:00.436Z,27.63
2023-01-08T08:13:27.253Z,28.50
2023-01-08T08:15:54.051Z,29.13
2023-01-08T08:18:21.300Z,30.00
2023-01-08T08:20:52.021Z,29.17
2023-01-08T08:23:18.928Z,31.27
2023-01-08T08:25:45.918Z,29.33
2023-01-08T08:28:13.027Z,29.20
2023-01-08T08:30:42.378Z,29.90
2023-01-08T08:33:09.465Z,33.72
2023-01-08T08:35:36.271Z,30.90
2023-01-08T08:38:03.036Z,29.02
2023-01-08T08:40:29.809Z,29.02
2023-01-08T08:42:57.753Z,29.15
2023-01-08T08:45:24.593Z,29.75
2023-01-08T08:47:51.356Z,29.20
2023-01-08T08:50:19.276Z,30.05
2023-01-08T08:52:46.216Z,30.73
2023-01-08T08:55:16.109Z,28.67
2023-01-08T08:57:43.747Z,28.45
2023-01-08T09:00:11.239Z,29.42
2023-01-08T09:02:38.286Z,29.15
2023-01-08T09:05:11.239Z,28.02
2023-01-08T09:07:38.167Z,28.02
2023-01-08T09:10:05.329Z,27.27
2023-01-08T09:12:32.119Z,26.60
2023-01-08T09:14:58.933Z,28.55
2023-01-08T09:17:25.944Z,27.80
2023-01-08T09:19:52.840Z,25.13
2023-01-08T09:22:19.881Z,24.95
2023-01-08T09:24:46.654Z,27.92
2023-01-08T09:27:13.884Z,28.50
2023-01-08T09:29:40.700Z,26.20
2023-01-08T09:32:07.899Z,24.80
2023-01-08T09:34:36.324Z,27.33
2023-01-08T09:37:03.595Z,27.02
2023-01-08T09:39:30.382Z,24.98
2023-01-08T09:41:57.233Z,28.70
2023-01-08T09:44:26.716Z,27.65
2023-01-08T09:46:54.975Z,25.08
2023-01-08T09:49:24.077Z,28.83
2023-01-08T09:51:50.903Z,25.45
2023-01-08T09:54:17.783Z,27.23
2023-01-08T09:56:44.634Z,26.90
2023-01-08T09:59:16.775Z,26.05
2023-01-08T10:01:45.376Z,27.70
2023-01-08T10:04:16.598Z,27.25
2023-01-08T10:06:55.919Z,27.42
2023-01-08T10:09:30.366Z,29.42
2023-01-08T10:12:01.649Z,28.88
2023-01-08T10:14:29.593Z,29.73
2023-01-08T10:17:11.559Z,25.98
2023-01-08T10:19:38.945Z,27.10
2023-01-08T10:22:21.108Z,25.25
2023-01-08T10:24:47.976Z,24.17
2023-01-08T10:27:16.306Z,26.35
2023-01-08T10:29:43.111Z,26.20
2023-01-08T10:32:31.889Z,25.83
2023-01-08T10:34:58.877Z,26.95
2023-01-08T10:37:42.638Z,25.65
2023-01-08T10:40:30.604Z,24.55
2023-01-08T10:42:58.716Z,27.95
2023-01-08T10:45:26.341Z,23.88
2023-01-08T10:48:00.737Z,24.50
2023-01-08T10:50:31.879Z,24.67
2023-01-08T10:53:06.139Z,25.63
2023-01-08T10:55:36.023Z,26.25
2023-01-08T10:58:04.985Z,23.23
2023-01-08T11:00:33.556Z,24.20
2023-01-08T11:03:07.782Z,22.35
2023-01-08T11:05:38.701Z,24.30
2023-01-08T11:08:14.297Z,24.60
2023-01-08T11:10:41.035Z,25.10
2023-01-08T11:13:09.048Z,22.40
2023-01-08T11:15:40.218Z,22.08
2023-01-08T11:18:07.474Z,22.55
2023-01-08T11:20:34.281Z,23.13
2023-01-08T11:23:17.796Z,21.55
2023-01-08T11:26:10.221Z,20.73
2023-01-08T11:28:39.761Z,22.20
2023-01-08T11:31:34.929Z,22.17
2023-01-08T11:34:08.313Z,23.55
2023-01-08T11:36:36.651Z,21.58
2023-01-08T11:39:03.391Z,23.92
2023-01-08T11:42:07.792Z,19.85
2023-01-08T11:44:47.901Z,21.75
2023-01-08T11:47:38.124Z,21.08
2023-01-08T11:50:06.432Z,20.52
2023-01-08T11:52:55.387Z,21.58
2023-01-08T11:55:28.137Z,18.80
2023-01-08T11:57:54.901Z,20.40
2023-01-08T12:00:46.825Z,21.75
2023-01-08T12:03:40.658Z,19.60
2023-01-08T12:06:32.203Z,20.98
2023-01-08T12:09:17.634Z,20.40
2023-01-08T12:11:47.718Z,18.83
2023-01-08T12:14:33.373Z,19.75
2023-01-08T12:17:16.152Z,19.83
2023-01-08T12:20:01.605Z,20.60
2023-01-08T12:22:54.455Z,21.15
2023-01-08T12:25:52.090Z,20.83
2023-01-08T12:28:30.771Z,18.92
2023-01-08T12:31:00.744Z,18.90
2023-01-08T12:33:33.015Z,19.10
2023-01-08T12:36:02.052Z,21.07
2023-01-08T12:38:37.531Z,21.30
2023-01-08T12:41:06.603Z,17.63
2023-01-08T12:43:48.792Z,17.65
2023-01-08T12:46:17.040Z,18.63
2023-01-08T12:48:45.107Z,18.83
2023-01-08T12:51:41.819Z,17.00
2023-01-08T12:54:30.155Z,16.65
2023-01-08T12:57:19.466Z,17.45
2023-01-08T13:00:01.370Z,17.88
2023-01-08T13:02:52.115Z,18.27
2023-01-08T13:05:21.654Z,19.05
2023-01-08T13:07:53.103Z,17.60
2023-01-08T13:10:33.614Z,18.52
2023-01-08T13:13:01.945Z,16.25
2023-01-08T13:15:30.247Z,19.58
2023-01-08T13:18:20.941Z,17.08
2023-01-08T13:20:57.759Z,17.75
2023-01-08T13:23:29.229Z,16.17
2023-01-08T13:25:59.412Z,16.48
2023-01-08T13:28:31.679Z,18.25
2023-01-08T13:31:25.843Z,15.83
2023-01-08T13:33:52.719Z,17.50
2023-01-08T13:36:22.335Z,18.67
2023-01-08T13:39:02.079Z,15.50
2023-01-08T13:41:37.143Z,16.00
2023-01-08T13:44:05.334Z,19.13
2023-01-08T13:46:37.430Z,14.85
2023-01-08T13:49:05.661Z,16.23
2023-01-08T13:51:38.662Z,15.10
2023-01-08T13:54:13.103Z,16.35
2023-01-08T13:56:44.698Z,15.93
2023-01-08T13:59:34.627Z,16.15
2023-01-08T14:02:01.813Z,13.80
2023-01-08T14:04:28.641Z,16.45
2023-01-08T14:07:11.131Z,14.52
2023-01-08T14:09:37.900Z,17.27
2023-01-08T14:12:04.781Z,16.48
2023-01-08T14:14:31.509Z,16.13
2023-01-08T14:16:58.966Z,18.02
2023-01-08T14:19:25.986Z,15.25
2023-01-08T14:21:54.775Z,15.35
2023-01-08T14:24:22.640Z,14.40
2023-01-08T14:26:53.776Z,16.10
2023-01-08T14:29:22.037Z,14.70
2023-01-08T14:31:51.671Z,13.10
2023-01-08T14:34:19.637Z,15.10
2023-01-08T14:36:46.432Z,14.73
2023-01-08T14:39:21.780Z,15.10
2023-01-08T14:42:07.006Z,12.75
2023-01-08T14:44:39.293Z,13.82
2023-01-08T14:47:16.134Z,12.50
2023-01-08T14:49:44.694Z,14.05
2023-01-08T14:52:12.865Z,14.07
2023-01-08T14:54:39.632Z,12.18
2023-01-08T14:57:06.448Z,12.80
2023-01-08T14:59:34.475Z,12.60
2023-01-08T15:02:02.065Z,12.63
2023-01-08T15:04:29.300Z,13.48
2023-01-08T15:07:18.689Z,11.35
2023-01-08T15:09:57.939Z,11.70
2023-01-08T15:12:30.674Z,13.27
2023-01-08T15:14:57.610Z,11.68
2023-01-08T15:17:25.773Z,12.35
2023-01-08T15:19:56.621Z,12.77
2023-01-08T15:22:26.061Z,13.38
2023-01-08T15:25:00.063Z,12.20
2023-01-08T15:27:27.333Z,13.90
2023-01-08T15:30:00.852Z,13.55
2023-01-08T15:32:39.014Z,12.70
2023-01-08T15:35:16.486Z,14.60
2023-01-08T15:37:44.300Z,12.45
2023-01-08T15:40:14.477Z,14.10
2023-01-08T15:42:59.614Z,13.20
2023-01-08T15:45:28.470Z,13.65
2023-01-08T15:47:55.426Z,13.10
2023-01-08T15:50:22.304Z,15.15
2023-01-08T15:52:49.103Z,16.25
2023-01-08T15:55:20.625Z,13.82
2023-01-08T15:57:47.500Z,16.15
2023-01-08T16:00:15.347Z,14.00
2023-01-08T16:02:47.143Z,13.93
2023-01-08T16:05:14.821Z,12.70
2023-01-08T16:07:41.586Z,16.27
2023-01-08T16:10:09.199Z,14.60
2023-01-08T16:12:36.235Z,14.45
2023-01-08T16:15:03.081Z,15.15
2023-01-08T16:17:30.228Z,13.48
2023-01-08T16:19:57.059Z,15.23
2023-01-08T16:22:23.826Z,14.02
2023-01-08T16:24:50.747Z,15.15
2023-01-08T16:27:17.507Z,15.85
2023-01-08T16:29:44.283Z,16.08
2023-01-08T16:32:11.086Z,13.98
2023-01-08T16:34:37.898Z,13.90
2023-01-08T16:37:04.665Z,15.02
2023-01-08T16:39:32.357Z,15.75
2023-01-08T16:41:59.193Z,16.85
2023-01-08T16:44:28.770Z,15.45
2023-01-08T16:46:55.813Z,13.88
2023-01-08T16:49:22.799Z,13.43
2023-01-08T16:51:49.580Z,14.57
2023-01-08T16:54:16.514Z,13.23
2023-01-08T16:56:43.386Z,15.02
2023-01-08T16:59:22.357Z,13.95
2023-01-08T17:01:50.713Z,14.65
2023-01-08T17:04:17.771Z,14.95
2023-01-08T17:06:44.549Z,12.13
2023-01-08T17:09:11.875Z,12.98
2023-01-08T17:11:38.752Z,12.77
2023-01-08T17:14:05.541Z,12.13
2023-01-08T17:16:32.320Z,13.40
2023-01-08T17:18:59.272Z,13.45
2023-01-08T17:21:25.972Z,12.88
2023-01-08T17:23:52.684Z,12.68
2023-01-08T17:26:19.563Z,12.13
2023-01-08T17:28:47.266Z,12.93
2023-01-08T17:31:15.726Z,13.50
2023-01-08T17:33:42.591Z,14.73
2023-01-08T17:36:13.746Z,15.88
2023-01-08T17:38:40.696Z,13.20
2023-01-08T17:41:09.172Z,14.48
2023-01-08T17:43:36.762Z,15.13
2023-01-08T17:46:05.254Z,15.70
2023-01-08T17:48:32.486Z,13.23
2023-01-08T17:51:02.227Z,13.30
2023-01-08T17:53:30.168Z,14.48
2023-01-08T17:55:58.544Z,12.48
2023-01-08T17:58:25.290Z,13.85
2023-01-08T18:00:52.067Z,14.30
2023-01-08T18:03:18.773Z,13.70
2023-01-08T18:05:45.491Z,13.38
2023-01-08T18:08:12.233Z,14.52
2023-01-08T18:10:39.019Z,13.48
2023-01-08T18:13:05.862Z,12.90
2023-01-08T18:15:34.399Z,12.30
2023-01-08T18:18:01.438Z,13.75
2023-01-08T18:20:28.800Z,12.63
2023-01-08T18:22:55.751Z,14.02
2023-01-08T18:25:22.467Z,12.25
2023-01-08T18:27:49.256Z,14.18
2023-01-08T18:30:16.120Z,12.85
2023-01-08T18:32:42.892Z,12.75
2023-01-08T18:35:09.777Z,13.73
2023-01-08T18:37:36.670Z,13.32
2023-01-08T18:40:03.903Z,13.70
2023-01-08T18:42:32.714Z,12.90
2023-01-08T18:44:59.533Z,13.38
2023-01-08T18:47:27.269Z,14.63
2023-01-08T18:49:55.095Z,13.88
2023-01-08T18:52:22.330Z,13.95
2023-01-08T18:54:49.464Z,13.13
2023-01-08T18:57:16.499Z,11.82
2023-01-08T18:59:44.544Z,13.20
2023-01-08T19:02:21.558Z,12.65
2023-01-08T19:04:48.596Z,12.77
2023-01-08T19:07:17.319Z,15.75
2023-01-08T19:09:44.200Z,14.57
2023-01-08T19:12:11.138Z,13.40
2023-01-08T19:14:38.000Z,13.15
2023-01-08T19:17:04.918Z,13.80
2023-01-08T19:19:31.730Z,14.55
2023-01-08T19:21:58.574Z,13.98
2023-01-08T19:24:25.407Z,15.32
2023-01-08T19:26:52.296Z,15.10
2023-01-08T19:29:19.049Z,15.55
2023-01-08T19:31:46.145Z,16.60
2023-01-08T19:34:12.953Z,15.85
2023-01-08T19:36:39.822Z,16.23
2023-01-08T19:39:07.669Z,16.65
2023-01-08T19:41:52.853Z,17.20
2023-01-08T19:44:21.322Z,18.60
2023-01-08T19:46:48.187Z,17.23
2023-01-08T19:49:15.019Z,17.45
2023-01-08T19:51:41.811Z,17.98
2023-01-08T19:54:08.499Z,15.45
2023-01-08T19:56:35.268Z,16.63
2023-01-08T19:59:02.044Z,15.63
2023-01-08T20:01:28.946Z,14.75
2023-01-08T20:03:55.957Z,16.20
2023-01-08T20:06:23.981Z,18.67
2023-01-08T20:08:53.219Z,18.77
2023-01-08T20:11:20.422Z,18.33
2023-01-08T20:13:47.463Z,18.45
2023-01-08T20:16:16.180Z,18.25
2023-01-08T20:18:43.063Z,20.48
2023-01-08T20:21:20.810Z,19.02
2023-01-08T20:23:47.633Z,20.73
2023-01-08T20:26:16.111Z,20.95
2023-01-08T20:28:43.430Z,18.58
2023-01-08T20:31:15.157Z,17.80
2023-01-08T20:33:42.025Z,18.77
2023-01-08T20:36:27.958Z,17.73
2023-01-08T20:38:58.697Z,19.95
2023-01-08T20:41:26.514Z,19.90
2023-01-08T20:43:56.118Z,22.63
2023-01-08T20:46:29.525Z,20.83
2023-01-08T20:48:57.102Z,19.58
2023-01-08T20:51:24.481Z,19.77
2023-01-08T20:53:54.745Z,19.95
2023-01-08T20:56:21.692Z,18.02
2023-01-08T20:58:48.841Z,20.48
2023-01-08T21:01:22.488Z,21.83
2023-01-08T21:03:49.983Z,20.35
2023-01-08T21:06:18.684Z,19.05
2023-01-08T21:08:46.990Z,18.55
2023-01-08T21:11:13.952Z,21.58
2023-01-08T21:13:40.895Z,17.70
2023-01-08T21:16:15.928Z,19.98
2023-01-08T21:18:44.045Z,19.55
2023-01-08T21:21:11.790Z,19.73
2023-01-08T21:23:38.540Z,20.33
2023-01-08T21:26:07.058Z,20.40
2023-01-08T21:28:34.201Z,18.98
2023-01-08T21:31:06.144Z,21.17
2023-01-08T21:33:33.235Z,19.15
2023-01-08T21:36:07.641Z,18.92
2023-01-08T21:38:38.355Z,20.63
2023-01-08T21:41:08.299Z,19.60
2023-01-08T21:43:53.906Z,20.70
2023-01-08T21:46:23.552Z,20.83
2023-01-08T21:48:52.034Z,20.33
2023-01-08T21:51:37.224Z,20.42
2023-01-08T21:54:04.401Z,19.92
2023-01-08T21:56:31.269Z,21.27
2023-01-08T21:58:58.419Z,20.67
2023-01-08T22:01:25.189Z,19.88
2023-01-08T22:03:52.024Z,19.20
2023-01-08T22:06:18.827Z,17.67
2023-01-08T22:08:50.184Z,16.63
2023-01-08T22:11:16.962Z,19.63
2023-01-08T22:13:43.686Z,20.00
2023-01-08T22:16:10.773Z,19.83
2023-01-08T22:18:38.008Z,21.08
2023-01-08T22:21:09.934Z,18.42
2023-01-08T22:23:36.855Z,19.10
2023-01-08T22:26:05.162Z,18.95
2023-01-08T22:28:33.120Z,18.77
2023-01-08T22:31:00.032Z,18.38
2023-01-08T22:33:26.827Z,18.17
2023-01-08T22:35:55.272Z,20.45
2023-01-08T22:38:23.775Z,19.23
2023-01-08T22:40:50.508Z,19.63
2023-01-08T22:43:17.269Z,20.45
2023-01-08T22:45:44.012Z,18.35
2023-01-08T22:48:12.361Z,19.48
2023-01-08T22:50:39.090Z,18.40
2023-01-08T22:53:05.888Z,20.05
2023-01-08T22:55:32.665Z,20.42
2023-01-08T22:57:59.452Z,19.42
2023-01-08T23:00:26.203Z,17.05
2023-01-08T23:02:52.945Z,18.92
2023-01-08T23:05:19.706Z,17.92
2023-01-08T23:07:46.476Z,17.63
2023-01-08T23:10:13.232Z,18.98
2023-01-08T23:12:39.934Z,19.48
2023-01-08T23:15:07.580Z,19.55
2023-01-08T23:17:44.547Z,19.20
2023-01-08T23:20:19.672Z,19.00
2023-01-08T23:22:47.106Z,19.67
2023-01-08T23:25:14.500Z,19.27
2023-01-08T23:27:41.231Z,16.90
2023-01-08T23:30:08.527Z,19.17
2023-01-08T23:32:35.281Z,18.38
2023-01-08T23:35:02.012Z,16.48
2023-01-08T23:37:28.777Z,17.27
2023-01-08T23:39:55.484Z,17.95
2023-01-08T23:42:22.405Z,14.80
2023-01-08T23:44:49.621Z,17.80
2023-01-08T23:47:16.431Z,18.98
2023-01-08T23:49:43.291Z,17.05
2023-01-08T23:52:10.049Z,18.38
2023-01-08T23:54:36.910Z,17.45
2023-01-08T23:57:06.106Z,18.45
2023-01-08T23:59:32.911Z,20.23
